Time;durP1;ratioP1;P1;durP2;ratioP2;P2;SDS_P1;SDS_P2;PMS_P1;PMS_P2;Temp;Humidity;BMP_temperature;BMP_pressure;BME280_temperature;BME280_humidity;BME280_pressure;Samples;Min_cycle;Max_cycle;Signal;HPM_P1;HPM_P2
2021/07/31 00:01:08;;;;;;;14.73;9.65;;;24.10;99.90;;;;;;5051953;28;20021;-75
2021/07/31 00:03:37;;;;;;;10.70;8.98;;;24.10;99.90;;;;;;5051713;28;20017;-75
2021/07/31 00:06:04;;;;;;;14.77;9.80;;;24.10;99.90;;;;;;5054568;28;20048;-75
2021/07/31 00:08:30;;;;;;;11.88;9.65;;;24.20;99.90;;;;;;5055631;28;20439;-75
2021/07/31 00:10:56;;;;;;;10.98;9.05;;;24.10;99.90;;;;;;5037935;28;20121;-75
2021/07/31 00:13:22;;;;;;;13.85;9.23;;;24.10;99.90;;;;;;5055644;28;20017;-75
2021/07/31 00:15:47;;;;;;;12.45;9.52;;;24.10;99.90;;;;;;5055801;28;20036;-75
2021/07/31 00:18:13;;;;;;;10.68;9.40;;;24.10;99.90;;;;;;5055929;28;20021;-75
2021/07/31 00:20:40;;;;;;;12.90;9.05;;;24.10;99.90;;;;;;5055251;28;20029;-75
2021/07/31 00:23:07;;;;;;;12.32;8.95;;;24.10;99.90;;;;;;5055005;28;20052;-75
2021/07/31 00:25:33;;;;;;;11.30;9.27;;;24.10;99.90;;;;;;5055140;28;20021;-75
2021/07/31 00:27:59;;;;;;;12.73;9.32;;;24.00;99.90;;;;;;5055072;28;20029;-75
2021/07/31 00:30:26;;;;;;;10.23;8.60;;;24.00;99.90;;;;;;5054302;28;20077;-75
2021/07/31 00:32:52;;;;;;;18.27;8.75;;;24.10;99.90;;;;;;5036946;28;20033;-76
2021/07/31 00:35:19;;;;;;;12.00;10.02;;;24.00;99.90;;;;;;5037028;28;20388;-76
2021/07/31 00:37:45;;;;;;;11.98;9.23;;;24.00;99.90;;;;;;5054738;28;20385;-75
2021/07/31 00:40:11;;;;;;;12.50;9.50;;;24.00;99.90;;;;;;5054288;28;20041;-75
2021/07/31 00:42:38;;;;;;;11.90;9.35;;;24.00;99.90;;;;;;5037158;28;20026;-75
2021/07/31 00:45:05;;;;;;;21.55;9.48;;;24.00;99.90;;;;;;5034177;28;20097;-75
2021/07/31 00:47:31;;;;;;;12.90;9.27;;;24.00;99.90;;;;;;5034353;28;20485;-75
2021/07/31 00:49:58;;;;;;;11.52;8.75;;;24.00;99.90;;;;;;5034324;28;20362;-75
2021/07/31 00:52:23;;;;;;;11.40;8.63;;;24.00;99.90;;;;;;5016412;28;20033;-75
2021/07/31 00:54:50;;;;;;;11.32;9.07;;;23.90;99.90;;;;;;5034097;28;20025;-75
2021/07/31 00:57:17;;;;;;;12.15;9.57;;;23.90;99.90;;;;;;5033948;28;20034;-75
2021/07/31 00:59:43;;;;;;;17.77;9.50;;;23.90;99.90;;;;;;5034152;28;20022;-75
2021/07/31 01:02:09;;;;;;;13.18;9.73;;;23.90;99.90;;;;;;5034243;28;20559;-75
2021/07/31 01:04:34;;;;;;;12.82;8.80;;;23.90;99.90;;;;;;5046681;28;20025;-75
2021/07/31 01:07:00;;;;;;;10.65;9.13;;;23.90;99.90;;;;;;5033407;28;20025;-75
2021/07/31 01:09:26;;;;;;;13.55;8.88;;;23.90;99.90;;;;;;5034077;28;20026;-75
2021/07/31 01:11:51;;;;;;;14.18;9.95;;;23.90;99.90;;;;;;5033769;28;20416;-75
2021/07/31 01:14:17;;;;;;;13.98;9.30;;;23.80;99.90;;;;;;5033845;28;20485;-76
2021/07/31 01:16:45;;;;;;;12.90;9.93;;;23.80;99.90;;;;;;5032245;28;20032;-75
2021/07/31 01:19:11;;;;;;;12.13;10.02;;;23.70;99.90;;;;;;5033894;28;20025;-76
2021/07/31 01:21:39;;;;;;;12.07;9.27;;;23.70;99.90;;;;;;5033575;28;20096;-75
2021/07/31 01:24:07;;;;;;;12.82;10.10;;;23.70;99.90;;;;;;5033754;28;20104;-75
2021/07/31 01:26:47;;;;;;;12.35;9.60;;;23.70;99.90;;;;;;5033660;28;20036;-75
2021/07/31 01:29:15;;;;;;;12.02;9.52;;;23.70;99.90;;;;;;5033615;28;20080;-75
2021/07/31 01:31:42;;;;;;;14.38;9.55;;;23.70;99.90;;;;;;5033471;28;20036;-75
2021/07/31 01:34:08;;;;;;;10.65;9.55;;;23.70;99.90;;;;;;5049998;28;20033;-75
2021/07/31 01:36:34;;;;;;;11.30;10.10;;;23.70;99.90;;;;;;5053216;28;20075;-75
2021/07/31 01:39:01;;;;;;;15.25;9.80;;;23.70;99.90;;;;;;5053027;28;20041;-75
2021/07/31 01:41:27;;;;;;;14.05;10.10;;;23.70;99.90;;;;;;5044350;28;20029;-75
2021/07/31 01:43:54;;;;;;;25.23;11.38;;;23.70;99.90;;;;;;5015558;28;20036;-75
2021/07/31 01:46:21;;;;;;;12.70;9.68;;;23.70;99.90;;;;;;5033379;28;20413;-75
2021/07/31 01:48:47;;;;;;;12.73;9.85;;;23.70;99.90;;;;;;5032832;28;20041;-75
2021/07/31 01:51:13;;;;;;;15.32;11.23;;;23.70;99.90;;;;;;5032997;28;20092;-75
2021/07/31 01:53:39;;;;;;;15.48;10.70;;;23.70;99.90;;;;;;5033110;28;20025;-76
2021/07/31 01:56:05;;;;;;;15.52;9.38;;;23.70;99.90;;;;;;5015335;28;20052;-75
2021/07/31 01:58:31;;;;;;;16.23;10.52;;;23.70;99.90;;;;;;5015264;28;20030;-75
2021/07/31 02:00:58;;;;;;;14.98;10.90;;;23.60;99.90;;;;;;5032649;28;20018;-75
2021/07/31 02:03:25;;;;;;;13.88;10.63;;;23.60;99.90;;;;;;5035541;28;20109;-75
2021/07/31 02:05:51;;;;;;;17.40;10.55;;;23.60;99.90;;;;;;5032795;28;20091;-75
2021/07/31 02:08:17;;;;;;;11.85;9.52;;;23.60;99.90;;;;;;5032741;28;20029;-75
2021/07/31 02:10:44;;;;;;;15.15;10.70;;;23.60;99.90;;;;;;5032492;28;20030;-75
2021/07/31 02:13:10;;;;;;;12.75;10.60;;;23.60;99.90;;;;;;5032684;28;20037;-75
2021/07/31 02:15:40;;;;;;;17.63;10.88;;;23.50;99.90;;;;;;5032458;28;20061;-75
2021/07/31 02:18:06;;;;;;;13.98;9.32;;;23.50;99.90;;;;;;5014456;28;20116;-75
2021/07/31 02:20:32;;;;;;;14.18;10.38;;;23.50;99.90;;;;;;5014810;28;20121;-75
2021/07/31 02:22:57;;;;;;;16.00;10.40;;;23.50;99.90;;;;;;5022469;28;20021;-75
2021/07/31 02:25:23;;;;;;;14.02;10.30;;;23.60;99.90;;;;;;5012755;28;20029;-75
2021/07/31 02:27:50;;;;;;;14.40;11.25;;;23.60;99.90;;;;;;5012365;28;20095;-75
2021/07/31 02:30:16;;;;;;;14.30;10.57;;;23.60;99.90;;;;;;5011432;28;20022;-76
2021/07/31 02:32:42;;;;;;;14.52;10.85;;;23.60;99.90;;;;;;5021929;28;20489;-75
2021/07/31 02:35:09;;;;;;;13.82;10.48;;;23.60;99.90;;;;;;5042421;28;20096;-75
2021/07/31 02:37:35;;;;;;;13.80;10.02;;;23.60;99.90;;;;;;5032183;28;20079;-75
2021/07/31 02:40:01;;;;;;;13.48;10.73;;;23.60;99.90;;;;;;5047409;28;20045;-75
2021/07/31 02:42:27;;;;;;;13.45;10.40;;;23.60;99.90;;;;;;5051968;28;20021;-75
2021/07/31 02:44:52;;;;;;;13.50;11.02;;;23.60;99.90;;;;;;5052025;28;20021;-75
2021/07/31 02:47:18;;;;;;;15.27;9.95;;;23.70;99.90;;;;;;5051946;28;20025;-75
2021/07/31 02:49:44;;;;;;;13.40;10.25;;;23.70;99.90;;;;;;5052037;28;20029;-75
2021/07/31 02:52:09;;;;;;;13.75;10.30;;;23.60;99.90;;;;;;5052107;28;20025;-75
2021/07/31 02:54:35;;;;;;;15.77;10.88;;;23.60;99.90;;;;;;5051959;28;20032;-75
2021/07/31 02:57:01;;;;;;;13.80;10.63;;;23.60;99.90;;;;;;5051730;28;20500;-75
2021/07/31 02:59:27;;;;;;;12.52;10.73;;;23.60;99.90;;;;;;5033680;28;20373;-76
2021/07/31 03:01:52;;;;;;;22.60;10.45;;;23.70;99.90;;;;;;5051861;28;20032;-75
2021/07/31 03:04:18;;;;;;;13.65;10.27;;;23.70;99.90;;;;;;5051718;28;20025;-76
2021/07/31 03:06:44;;;;;;;17.50;11.13;;;23.70;99.90;;;;;;5051749;28;20025;-75
2021/07/31 03:09:10;;;;;;;15.77;10.70;;;23.70;99.90;;;;;;5051489;28;20507;-75
2021/07/31 03:11:35;;;;;;;19.42;10.95;;;23.70;99.90;;;;;;5051444;28;20036;-76
2021/07/31 03:14:01;;;;;;;17.08;12.07;;;23.70;99.90;;;;;;5051450;28;20036;-76
2021/07/31 03:16:27;;;;;;;14.80;11.45;;;23.70;99.90;;;;;;5051166;28;20025;-75
2021/07/31 03:18:52;;;;;;;17.20;11.27;;;23.70;99.90;;;;;;5051219;28;20577;-75
2021/07/31 03:21:18;;;;;;;15.40;10.68;;;23.70;99.90;;;;;;5049765;28;20028;-75
2021/07/31 03:23:44;;;;;;;14.98;10.68;;;23.70;99.90;;;;;;5050092;28;20397;-76
2021/07/31 03:26:09;;;;;;;14.90;10.95;;;23.70;99.90;;;;;;5051317;28;20032;-75
2021/07/31 03:28:35;;;;;;;13.75;11.18;;;23.70;99.90;;;;;;5051303;28;20063;-75
2021/07/31 03:31:01;;;;;;;19.42;10.85;;;23.70;99.90;;;;;;5051249;28;20180;-76
2021/07/31 03:33:27;;;;;;;18.10;11.40;;;23.60;99.90;;;;;;5051076;28;20033;-75
2021/07/31 03:35:54;;;;;;;17.40;11.20;;;23.60;99.90;;;;;;5050219;28;20100;-75
2021/07/31 03:38:20;;;;;;;19.83;11.27;;;23.60;99.90;;;;;;5049404;28;20021;-75
2021/07/31 03:40:46;;;;;;;19.38;11.57;;;23.60;99.90;;;;;;5043531;28;20049;-75
2021/07/31 03:43:15;;;;;;;16.55;11.60;;;23.60;99.90;;;;;;5034138;28;20049;-75
2021/07/31 03:45:41;;;;;;;14.25;10.88;;;23.60;99.90;;;;;;5033772;28;20034;-75
2021/07/31 03:48:07;;;;;;;17.17;11.15;;;23.50;99.90;;;;;;5034113;28;20117;-75
2021/07/31 03:50:37;;;;;;;17.17;11.27;;;23.50;99.90;;;;;;5034199;28;20108;-75
2021/07/31 03:53:04;;;;;;;18.25;12.20;;;23.50;99.90;;;;;;5035520;28;20080;-75
2021/07/31 03:55:29;;;;;;;15.82;11.48;;;23.50;99.90;;;;;;5034805;28;20432;-75
2021/07/31 03:57:55;;;;;;;19.88;11.27;;;23.60;99.90;;;;;;5035065;28;20075;-75
2021/07/31 04:00:21;;;;;;;21.02;12.80;;;23.60;99.90;;;;;;5016951;28;20022;-75
2021/07/31 04:02:46;;;;;;;19.30;11.82;;;23.60;99.90;;;;;;5022500;28;20032;-75
2021/07/31 04:05:12;;;;;;;15.60;11.63;;;23.60;99.90;;;;;;5038715;28;21500;-76
2021/07/31 04:07:38;;;;;;;24.25;13.07;;;23.60;99.90;;;;;;5034372;28;20389;-75
2021/07/31 04:10:04;;;;;;;15.85;11.55;;;23.60;99.90;;;;;;5034894;28;20028;-75
2021/07/31 04:12:30;;;;;;;17.40;11.43;;;23.60;99.90;;;;;;5034749;28;20083;-75
2021/07/31 04:14:56;;;;;;;16.77;11.50;;;23.60;99.90;;;;;;5034992;28;20018;-75
2021/07/31 04:17:22;;;;;;;16.35;11.10;;;23.60;99.90;;;;;;5034534;28;20393;-75
2021/07/31 04:19:48;;;;;;;14.25;11.20;;;23.60;99.90;;;;;;5034323;28;20498;-75
2021/07/31 04:22:14;;;;;;;16.63;11.38;;;23.50;99.90;;;;;;5034372;28;20048;-75
2021/07/31 04:24:39;;;;;;;22.88;11.02;;;23.50;99.90;;;;;;5034578;28;20112;-75
2021/07/31 04:27:05;;;;;;;14.20;10.25;;;23.50;99.90;;;;;;5034571;28;20022;-76
2021/07/31 04:29:31;;;;;;;13.10;9.82;;;23.50;99.90;;;;;;5016840;28;20026;-75
2021/07/31 04:31:57;;;;;;;15.60;10.73;;;23.50;99.90;;;;;;5034247;28;20083;-75
2021/07/31 04:34:22;;;;;;;14.85;9.55;;;23.50;99.90;;;;;;5052900;28;20116;-75
2021/07/31 04:36:48;;;;;;;14.85;10.05;;;23.50;99.90;;;;;;5037372;28;20112;-75
2021/07/31 04:39:14;;;;;;;13.57;10.02;;;23.50;99.90;;;;;;5042570;28;20116;-76
2021/07/31 04:41:40;;;;;;;15.45;11.00;;;23.50;99.90;;;;;;5052707;28;20029;-75
2021/07/31 04:44:06;;;;;;;14.07;10.40;;;23.50;99.90;;;;;;5053135;28;20005;-75
2021/07/31 04:46:32;;;;;;;13.18;9.85;;;23.50;99.90;;;;;;5052797;28;20094;-75
2021/07/31 04:48:57;;;;;;;11.60;9.50;;;23.50;99.90;;;;;;5053120;28;20025;-75
2021/07/31 04:51:23;;;;;;;15.20;10.38;;;23.50;99.90;;;;;;5052613;28;20036;-75
2021/07/31 04:53:49;;;;;;;15.07;10.75;;;23.50;99.90;;;;;;5053006;28;20070;-75
2021/07/31 04:56:14;;;;;;;15.45;10.15;;;23.50;99.90;;;;;;5052859;28;20032;-75
2021/07/31 04:58:40;;;;;;;12.77;9.95;;;23.60;99.90;;;;;;5052582;28;20078;-76
2021/07/31 05:01:06;;;;;;;13.95;9.07;;;23.60;99.90;;;;;;5052939;28;20047;-76
2021/07/31 05:03:32;;;;;;;15.90;10.38;;;23.60;99.90;;;;;;5052733;28;20528;-76
2021/07/31 05:05:57;;;;;;;14.68;11.00;;;23.60;99.90;;;;;;5052856;28;20358;-75
2021/07/31 05:08:23;;;;;;;19.55;10.65;;;23.60;99.90;;;;;;5052810;28;20100;-75
2021/07/31 05:10:51;;;;;;;16.17;10.38;;;23.70;99.90;;;;;;5052300;28;20040;-75
2021/07/31 05:13:18;;;;;;;13.02;9.75;;;23.70;99.90;;;;;;5052596;28;20017;-75
2021/07/31 05:15:45;;;;;;;14.38;9.18;;;23.70;99.90;;;;;;5052270;28;20040;-75
2021/07/31 05:18:12;;;;;;;14.07;9.60;;;23.70;99.90;;;;;;5051831;28;20028;-75
2021/07/31 05:20:39;;;;;;;10.98;9.82;;;23.70;99.90;;;;;;5052386;28;20484;-75
2021/07/31 05:23:05;;;;;;;12.43;9.43;;;23.70;99.90;;;;;;5052471;28;20021;-76
2021/07/31 05:25:31;;;;;;;11.50;9.43;;;23.80;99.90;;;;;;5052178;28;20489;-75
2021/07/31 05:27:56;;;;;;;13.73;9.43;;;23.80;99.90;;;;;;5052366;28;20060;-75
2021/07/31 05:30:22;;;;;;;11.57;8.88;;;23.80;99.90;;;;;;5052221;28;20029;-75
2021/07/31 05:32:49;;;;;;;13.73;8.45;;;23.80;99.90;;;;;;5052095;28;20025;-75
2021/07/31 05:35:14;;;;;;;10.90;8.85;;;23.90;99.90;;;;;;5052100;28;20480;-76
2021/07/31 05:37:40;;;;;;;10.80;8.68;;;23.90;99.90;;;;;;5052278;28;20033;-76
2021/07/31 05:40:07;;;;;;;15.73;8.65;;;23.90;99.90;;;;;;4993933;28;1187029;-75
2021/07/31 05:42:33;;;;;;;13.50;8.45;;;23.90;99.90;;;;;;5053333;28;20111;-75
2021/07/31 05:45:03;;;;;;;9.80;8.35;;;23.90;99.90;;;;;;5051286;28;20111;-76
2021/07/31 05:47:29;;;;;;;15.07;8.93;;;23.90;99.90;;;;;;5031733;28;20117;-75
2021/07/31 05:49:56;;;;;;;11.35;8.70;;;24.00;99.90;;;;;;5047874;28;20025;-75
2021/07/31 05:52:26;;;;;;;9.98;8.55;;;24.00;99.90;;;;;;5034595;28;20036;-75
2021/07/31 05:54:53;;;;;;;13.43;9.05;;;24.00;99.90;;;;;;5052950;28;20029;-75
2021/07/31 05:57:19;;;;;;;14.55;8.52;;;24.00;99.90;;;;;;5052618;28;20029;-76
2021/07/31 05:59:46;;;;;;;8.70;7.80;;;24.00;99.90;;;;;;5052440;28;20028;-75
2021/07/31 06:02:11;;;;;;;11.38;8.40;;;24.00;99.90;;;;;;5052258;28;20025;-75
2021/07/31 06:04:37;;;;;;;8.43;7.60;;;24.00;99.90;;;;;;5052464;28;20083;-75
2021/07/31 06:07:06;;;;;;;11.52;8.63;;;24.00;99.90;;;;;;5052593;28;20032;-75
2021/07/31 06:09:33;;;;;;;8.70;7.90;;;24.10;99.90;;;;;;5052408;28;20025;-75
2021/07/31 06:12:00;;;;;;;10.38;8.77;;;24.20;99.90;;;;;;5052310;28;20138;-76
2021/07/31 06:14:25;;;;;;;12.63;8.43;;;24.20;99.90;;;;;;5051995;28;20037;-75
2021/07/31 06:16:51;;;;;;;10.55;8.02;;;24.30;99.90;;;;;;5050026;28;20025;-75
2021/07/31 06:19:17;;;;;;;9.80;8.32;;;24.40;99.90;;;;;;5052401;28;20025;-75
2021/07/31 06:21:43;;;;;;;15.27;8.57;;;24.40;99.90;;;;;;5052200;28;20594;-75
2021/07/31 06:24:08;;;;;;;14.25;8.52;;;24.50;99.90;;;;;;5034020;28;20052;-76
2021/07/31 06:26:37;;;;;;;10.27;8.38;;;24.60;99.90;;;;;;5052285;28;20032;-75
2021/07/31 06:29:03;;;;;;;13.13;9.82;;;24.60;99.90;;;;;;5052291;28;20031;-75
2021/07/31 06:31:29;;;;;;;12.27;9.02;;;24.70;99.90;;;;;;5051864;28;20021;-75
2021/07/31 06:33:57;;;;;;;12.73;8.55;;;24.70;99.90;;;;;;5052130;28;20496;-75
2021/07/31 06:36:23;;;;;;;9.48;8.30;;;24.80;99.90;;;;;;5051990;28;20039;-75
2021/07/31 06:38:48;;;;;;;13.55;7.70;;;24.80;99.90;;;;;;5034138;28;20496;-75
2021/07/31 06:41:14;;;;;;;10.95;8.45;;;24.90;99.90;;;;;;5033741;28;20025;-75
2021/07/31 06:43:40;;;;;;;16.88;11.00;;;25.00;99.90;;;;;;5052247;28;20033;-76
2021/07/31 06:46:10;;;;;;;20.58;11.80;;;25.00;99.90;;;;;;5030932;28;20020;-75
2021/07/31 06:48:36;;;;;;;16.90;10.68;;;25.00;99.90;;;;;;5032005;28;20028;-75
2021/07/31 06:51:02;;;;;;;16.45;11.80;;;25.10;99.90;;;;;;5031880;28;20427;-76
2021/07/31 06:53:27;;;;;;;18.27;12.20;;;25.10;99.90;;;;;;5014268;28;20028;-76
2021/07/31 06:55:53;;;;;;;18.75;12.57;;;25.20;99.90;;;;;;5031695;28;20108;-75
2021/07/31 06:58:19;;;;;;;15.75;11.57;;;25.30;99.90;;;;;;5035096;28;20071;-75
2021/07/31 07:00:44;;;;;;;21.98;13.48;;;25.30;99.90;;;;;;5051823;28;20017;-75
2021/07/31 07:03:10;;;;;;;19.17;14.15;;;25.30;99.90;;;;;;5051473;28;20032;-76
2021/07/31 07:05:36;;;;;;;26.77;15.30;;;25.40;99.90;;;;;;5051749;28;20025;-75
2021/07/31 07:08:01;;;;;;;20.77;14.02;;;25.40;99.90;;;;;;5033531;28;20123;-75
2021/07/31 07:10:27;;;;;;;21.00;14.45;;;25.40;99.90;;;;;;5051678;28;20147;-75
2021/07/31 07:12:53;;;;;;;27.25;15.68;;;25.50;99.90;;;;;;5051611;28;20027;-75
2021/07/31 07:15:18;;;;;;;29.23;15.32;;;25.50;99.90;;;;;;5051536;28;20308;-75
2021/07/31 07:17:44;;;;;;;22.30;15.52;;;25.50;99.90;;;;;;5051451;28;20033;-75
2021/07/31 07:20:11;;;;;;;25.42;15.68;;;25.50;99.90;;;;;;5033561;28;20041;-75
2021/07/31 07:22:36;;;;;;;25.50;15.43;;;25.60;99.90;;;;;;5051512;28;20024;-75
2021/07/31 07:25:02;;;;;;;27.88;14.98;;;25.60;99.90;;;;;;5051387;28;20083;-76
2021/07/31 07:27:28;;;;;;;21.55;15.50;;;25.60;99.90;;;;;;5051431;28;20021;-75
2021/07/31 07:29:53;;;;;;;23.02;15.75;;;25.70;99.90;;;;;;5051423;28;20031;-76
2021/07/31 07:32:19;;;;;;;21.60;14.60;;;25.70;99.90;;;;;;5051139;28;20485;-75
2021/07/31 07:34:45;;;;;;;17.77;13.80;;;25.70;99.90;;;;;;5051373;28;20017;-75
2021/07/31 07:37:11;;;;;;;20.75;13.35;;;25.80;99.90;;;;;;5050666;28;20029;-75
2021/07/31 07:39:36;;;;;;;17.02;12.75;;;25.80;99.90;;;;;;5051210;28;20081;-75
2021/07/31 07:42:04;;;;;;;18.40;12.05;;;25.90;99.90;;;;;;5051297;28;20029;-75
2021/07/31 07:44:30;;;;;;;18.88;11.98;;;25.90;99.90;;;;;;5051193;28;20025;-75
2021/07/31 07:46:55;;;;;;;22.33;12.88;;;26.00;99.90;;;;;;5049836;28;20397;-75
2021/07/31 07:49:21;;;;;;;17.45;11.38;;;26.10;99.90;;;;;;5051082;28;20025;-75
2021/07/31 07:51:47;;;;;;;16.48;11.30;;;26.10;99.90;;;;;;5051266;28;20040;-75
2021/07/31 07:54:12;;;;;;;17.50;10.77;;;26.10;99.90;;;;;;5047422;28;20024;-75
2021/07/31 07:56:38;;;;;;;18.15;11.60;;;26.20;99.90;;;;;;5047130;28;20041;-75
2021/07/31 07:59:04;;;;;;;16.20;12.20;;;26.20;99.90;;;;;;5043285;28;20029;-75
2021/07/31 08:01:32;;;;;;;13.95;10.95;;;26.20;99.90;;;;;;5046249;28;20112;-76
2021/07/31 08:03:58;;;;;;;14.10;10.82;;;26.20;99.90;;;;;;5047472;28;20020;-75
2021/07/31 08:06:24;;;;;;;13.43;10.18;;;26.20;99.90;;;;;;5047576;28;20033;-75
2021/07/31 08:08:50;;;;;;;15.77;11.05;;;26.20;99.90;;;;;;5048136;28;20033;-76
2021/07/31 08:11:15;;;;;;;18.55;11.10;;;26.20;99.90;;;;;;5047938;28;20383;-76
2021/07/31 08:13:41;;;;;;;16.13;11.02;;;26.30;99.90;;;;;;5047248;28;20453;-75
2021/07/31 08:16:07;;;;;;;14.73;11.00;;;26.30;99.90;;;;;;5047488;28;20051;-75
2021/07/31 08:18:33;;;;;;;11.50;10.30;;;26.30;99.90;;;;;;5045247;28;20017;-75
2021/07/31 08:20:58;;;;;;;13.55;10.80;;;26.30;99.90;;;;;;5047939;28;20049;-76
2021/07/31 08:23:24;;;;;;;14.65;10.50;;;26.50;99.90;;;;;;5049036;28;20052;-75
2021/07/31 08:25:50;;;;;;;18.08;10.70;;;26.50;99.90;;;;;;5046503;28;20028;-75
2021/07/31 08:28:15;;;;;;;15.27;10.30;;;26.40;99.90;;;;;;5050205;28;20025;-75
2021/07/31 08:30:41;;;;;;;16.45;10.77;;;26.40;99.90;;;;;;5052068;28;20033;-75
2021/07/31 08:33:07;;;;;;;18.33;11.48;;;26.50;99.90;;;;;;5054143;28;20531;-76
2021/07/31 08:35:33;;;;;;;15.18;10.23;;;26.50;99.90;;;;;;5054186;28;20057;-75
2021/07/31 08:37:58;;;;;;;16.33;10.10;;;26.60;99.90;;;;;;5053033;28;20025;-76
2021/07/31 08:40:26;;;;;;;14.25;10.63;;;26.60;99.90;;;;;;5035739;28;20049;-75
2021/07/31 08:42:52;;;;;;;18.40;11.27;;;26.60;99.90;;;;;;5050217;28;20056;-76
2021/07/31 08:45:18;;;;;;;13.05;10.07;;;26.60;99.90;;;;;;5046428;28;20056;-76
2021/07/31 08:47:46;;;;;;;16.75;10.52;;;26.60;99.90;;;;;;5050078;28;20033;-75
2021/07/31 08:50:14;;;;;;;14.25;10.55;;;26.60;99.90;;;;;;5052034;28;20052;-76
2021/07/31 08:52:42;;;;;;;15.82;11.27;;;26.60;99.90;;;;;;5052057;28;20028;-76
2021/07/31 08:55:08;;;;;;;16.55;11.60;;;26.60;99.90;;;;;;5046781;28;20104;-75
2021/07/31 08:57:34;;;;;;;14.52;9.15;;;26.60;99.90;;;;;;5047303;28;20112;-76
2021/07/31 09:00:00;;;;;;;19.25;11.82;;;26.70;99.90;;;;;;5052055;28;20108;-75
2021/07/31 09:02:46;;;;;;;16.95;10.30;;;26.70;99.90;;;;;;5052720;28;20040;-75
2021/07/31 09:05:12;;;;;;;12.45;10.20;;;26.80;99.90;;;;;;5052958;28;20104;-75
2021/07/31 09:07:39;;;;;;;15.70;10.95;;;26.80;99.90;;;;;;5051654;28;20025;-76
2021/07/31 09:10:25;;;;;;;13.40;9.70;;;26.90;99.90;;;;;;5050916;28;20120;-76
2021/07/31 09:12:55;;;;;;;18.00;10.80;;;27.00;99.90;;;;;;5044514;28;20029;-76
2021/07/31 09:15:37;;;;;;;15.18;11.45;;;27.00;99.90;;;;;;5038153;28;20099;-75
2021/07/31 09:18:18;;;;;;;11.57;9.20;;;27.00;99.90;;;;;;5020375;28;20043;-76
2021/07/31 09:20:44;;;;;;;15.43;11.37;;;26.90;99.90;;;;;;5045941;28;20040;-75
2021/07/31 09:23:10;;;;;;;18.30;10.98;;;26.90;99.90;;;;;;5046363;28;20485;-76
2021/07/31 09:25:37;;;;;;;17.45;10.95;;;27.00;99.90;;;;;;5046707;28;20112;-76
2021/07/31 09:28:23;;;;;;;15.90;10.75;;;27.10;99.90;;;;;;5030064;28;20116;-75
2021/07/31 09:30:52;;;;;;;17.48;11.18;;;27.10;99.90;;;;;;5046115;28;20029;-75
2021/07/31 09:33:18;;;;;;;14.48;11.25;;;27.20;99.90;;;;;;5037717;28;20040;-75
2021/07/31 09:35:48;;;;;;;13.75;9.48;;;27.20;99.90;;;;;;5056726;28;20035;-76
2021/07/31 09:38:15;;;;;;;14.15;10.70;;;27.20;99.90;;;;;;5051171;28;20036;-75
2021/07/31 09:40:41;;;;;;;15.68;10.38;;;27.30;99.90;;;;;;5051210;28;20400;-75
2021/07/31 09:43:17;;;;;;;16.30;10.68;;;27.40;99.90;;;;;;5050358;28;20021;-75
2021/07/31 09:45:44;;;;;;;13.77;10.43;;;27.40;99.90;;;;;;5029668;28;20508;-75
2021/07/31 09:48:10;;;;;;;13.70;10.45;;;27.50;99.90;;;;;;5032523;28;20480;-76
2021/07/31 09:50:44;;;;;;;14.10;10.50;;;27.50;99.90;;;;;;5052028;28;20025;-75
2021/07/31 09:53:14;;;;;;;15.05;9.82;;;27.50;99.90;;;;;;5049999;28;20246;-75
2021/07/31 09:55:50;;;;;;;17.65;11.93;;;27.50;99.90;;;;;;5052147;28;20057;-75
2021/07/31 09:58:19;;;;;;;11.20;9.25;;;27.50;99.90;;;;;;5040780;28;20022;-76
2021/07/31 10:00:47;;;;;;;13.95;11.00;;;27.60;99.90;;;;;;5032965;28;20485;-75
2021/07/31 10:03:14;;;;;;;11.43;9.25;;;27.70;99.90;;;;;;5045219;28;20059;-76
2021/07/31 10:05:41;;;;;;;11.45;9.95;;;27.70;99.90;;;;;;5052605;28;20033;-75
2021/07/31 10:08:09;;;;;;;15.00;11.85;;;27.80;99.90;;;;;;5052271;28;20104;-75
2021/07/31 10:10:35;;;;;;;13.10;9.90;;;28.00;99.50;;;;;;5051440;28;20567;-76
2021/07/31 10:13:02;;;;;;;16.45;11.88;;;28.00;99.90;;;;;;5032728;28;20028;-76
2021/07/31 10:15:27;;;;;;;14.27;10.43;;;28.10;99.00;;;;;;5033771;28;20025;-75
2021/07/31 10:17:54;;;;;;;13.02;10.30;;;28.10;98.90;;;;;;5049355;28;20035;-76
2021/07/31 10:20:27;;;;;;;14.30;10.55;;;28.10;99.00;;;;;;5052367;28;20517;-75
2021/07/31 10:22:54;;;;;;;16.77;11.73;;;28.20;98.70;;;;;;5052387;28;20427;-75
2021/07/31 10:25:21;;;;;;;13.73;9.50;;;28.30;98.00;;;;;;5051864;28;20500;-75
2021/07/31 10:27:47;;;;;;;14.35;10.20;;;28.30;98.50;;;;;;5051875;28;20033;-75
2021/07/31 10:30:26;;;;;;;11.02;9.93;;;28.40;97.90;;;;;;5052055;28;20036;-75
2021/07/31 10:32:53;;;;;;;11.30;9.93;;;28.40;98.60;;;;;;5052223;28;20024;-75
2021/07/31 10:35:29;;;;;;;17.73;9.00;;;28.50;98.90;;;;;;5052210;28;20488;-75
2021/07/31 10:37:56;;;;;;;13.50;9.07;;;28.50;99.20;;;;;;5042770;28;20029;-75
2021/07/31 10:40:36;;;;;;;9.70;8.70;;;28.60;99.10;;;;;;5052095;28;20120;-75
2021/07/31 10:43:11;;;;;;;11.77;8.75;;;28.80;96.30;;;;;;5052186;28;20480;-76
2021/07/31 10:45:37;;;;;;;17.98;10.73;;;28.70;96.30;;;;;;5051701;28;20079;-75
2021/07/31 10:48:08;;;;;;;16.35;10.93;;;28.80;97.30;;;;;;5051579;28;20029;-76
2021/07/31 10:50:38;;;;;;;17.88;11.05;;;28.80;96.80;;;;;;5049793;28;20029;-75
2021/07/31 10:53:06;;;;;;;16.05;9.82;;;28.80;96.30;;;;;;5039049;28;20480;-75
2021/07/31 10:55:38;;;;;;;12.98;10.00;;;28.80;97.00;;;;;;5051814;28;20113;-75
2021/07/31 10:58:10;;;;;;;14.38;10.63;;;29.00;95.40;;;;;;5034886;28;20533;-75
2021/07/31 11:00:44;;;;;;;11.85;10.48;;;29.10;95.50;;;;;;5034483;28;20021;-75
2021/07/31 11:03:18;;;;;;;11.70;8.75;;;29.10;95.40;;;;;;5052429;28;20079;-75
2021/07/31 11:05:58;;;;;;;11.55;9.23;;;29.10;96.20;;;;;;5046587;28;20036;-76
2021/07/31 11:08:47;;;;;;;13.50;8.95;;;29.20;95.30;;;;;;5050526;28;20095;-75
2021/07/31 11:11:18;;;;;;;12.60;8.52;;;29.20;95.90;;;;;;5012048;28;20032;-75
2021/07/31 11:13:44;;;;;;;11.05;8.88;;;29.20;94.10;;;;;;5050971;28;20040;-76
2021/07/31 11:16:18;;;;;;;12.02;8.00;;;29.20;93.80;;;;;;5049105;28;20452;-76
2021/07/31 11:18:47;;;;;;;11.52;7.00;;;29.20;93.50;;;;;;5029983;28;20033;-76
2021/07/31 11:21:20;;;;;;;11.30;7.63;;;29.20;93.10;;;;;;5041842;28;20052;-76
2021/07/31 11:23:53;;;;;;;9.13;8.18;;;29.30;93.40;;;;;;5046014;28;20032;-76
2021/07/31 11:26:49;;;;;;;8.70;7.80;;;29.50;92.50;;;;;;5047204;28;20053;-76
2021/07/31 11:29:16;;;;;;;9.68;8.38;;;29.60;94.30;;;;;;5049790;28;20035;-75
2021/07/31 11:31:45;;;;;;;8.55;7.75;;;29.80;93.90;;;;;;5042341;28;20033;-75
2021/07/31 11:34:12;;;;;;;11.40;7.65;;;29.80;93.40;;;;;;5029392;28;20094;-75
2021/07/31 11:36:52;;;;;;;10.15;8.35;;;29.90;93.20;;;;;;5029744;28;20041;-76
2021/07/31 11:39:18;;;;;;;11.07;8.50;;;29.90;93.00;;;;;;5045602;28;20505;-75
2021/07/31 11:41:44;;;;;;;7.68;7.03;;;30.10;95.00;;;;;;5050496;28;20032;-75
2021/07/31 11:44:11;;;;;;;8.32;7.53;;;30.20;94.50;;;;;;5051616;28;20025;-75
2021/07/31 11:46:43;;;;;;;12.80;7.75;;;30.30;94.00;;;;;;5049780;28;20400;-75
2021/07/31 11:49:24;;;;;;;11.85;8.40;;;30.50;93.20;;;;;;5051801;28;20082;-75
2021/07/31 11:51:54;;;;;;;8.88;7.28;;;30.50;92.90;;;;;;5050772;28;20025;-75
2021/07/31 11:54:20;;;;;;;10.95;7.05;;;30.50;92.70;;;;;;5052161;28;20044;-75
2021/07/31 11:56:47;;;;;;;9.15;8.35;;;30.50;93.20;;;;;;5052134;28;20036;-75
2021/07/31 11:59:31;;;;;;;13.25;9.02;;;30.60;93.90;;;;;;5051080;28;20504;-76
2021/07/31 12:01:58;;;;;;;10.05;7.70;;;30.80;92.80;;;;;;5031637;28;20476;-75
2021/07/31 12:04:45;;;;;;;9.15;7.35;;;30.90;93.10;;;;;;5034348;28;20024;-75
2021/07/31 12:07:21;;;;;;;13.85;8.13;;;30.90;92.80;;;;;;5053158;28;20381;-75
2021/07/31 12:10:01;;;;;;;9.00;8.10;;;31.10;91.80;;;;;;5034279;28;20395;-75
2021/07/31 12:12:36;;;;;;;8.55;7.18;;;31.10;92.20;;;;;;5054932;28;20049;-75
2021/07/31 12:15:25;;;;;;;8.18;7.38;;;31.20;92.00;;;;;;5054435;28;20083;-75
2021/07/31 12:17:54;;;;;;;8.00;7.30;;;31.20;91.80;;;;;;5053972;28;20029;-75
2021/07/31 12:20:34;;;;;;;9.13;7.63;;;31.20;91.60;;;;;;5055474;28;20029;-75
2021/07/31 12:23:01;;;;;;;9.07;7.70;;;31.20;91.70;;;;;;5053563;28;20036;-76
2021/07/31 12:25:28;;;;;;;10.10;8.20;;;31.40;91.80;;;;;;5054893;28;20020;-76
2021/07/31 12:27:55;;;;;;;11.27;8.48;;;31.30;91.10;;;;;;5051410;28;20027;-76
2021/07/31 12:30:27;;;;;;;9.70;8.70;;;31.30;90.40;;;;;;5052148;28;20053;-75
2021/07/31 12:33:17;;;;;;;7.93;7.15;;;31.40;90.60;;;;;;5052276;28;20045;-75
2021/07/31 12:36:04;;;;;;;9.65;8.00;;;31.40;90.70;;;;;;5023408;28;20144;-75